Airfield :
LOGIN :

Register | Disclaimer

   EN    FR    IT 

 










Legend :    VFR   Marginal VFR   IFR   Intensive IFR   Very Intensive IFR
Visi :
Ceiling :
>= 8 km
>= 3000ft
5 to 8 km
1000 to 3000 ft
1500m to 5 km
500 to 1000 ft
800 to 1500m
200 to 500 ft
< 800m
< 200 ft
Symbols :   Thunderstorms  Fog  Heavy snow  Heavy precipitations  Wind > 20 kt
SIGMETs :     Misc.  Thunderstorms  Icing  Turbulence  Mountain Waves  Volcanic Ashes







- Airport Elevation : 479 ft
- IATA code : DOL
- Download approach charts


LFRG - Deauville

CURRENT METAR :
  • 251500Z AUTO 34004KT 280V030 9999 OVC004 17/15 Q1019 BECMG BKN020

EXPIRED METARs :
  • 251430Z AUTO 32005KT 290V350 9999 OVC005 17/15 Q1019 BECMG BKN020
  • 251400Z AUTO VRB03KT 9999 OVC003 16/15 Q1019 BECMG BKN020
  • 251330Z AUTO 32003KT 280V350 9999 OVC005 16/15 Q1019 BECMG BKN020
  • 251300Z AUTO 31004KT 290V360 4400 BR OVC004 17/15 Q1018 BECMG 9999 NSW BKN020
  • 251230Z AUTO VRB03KT 4500 BR OVC005 17/15 Q1018 BECMG 9999 NSW BKN020

TAF AMD TAF LFRG
Valid from the 25 at 15:00 until the 26 at 00:00 UTC


251505Z 2515/2524 VRB03KT 9999 BKN015
TEMPO 2515/2518 BKN020
TEMPO 2515/2524 3000 RADZ BKN004
ATIS : +33 2 31 65 65 36
No reported NOTAMs for that airfield.



MET'MAP, your aeronautical weather chart ! - Copyright ORBIFLY December 2007 - Disclaimer

ORBIFLY MET'MAP TEAM :

Programming & Development : Alexandra Zaïnal
Concept & Development : Baudouin d'Aumeries
Co-Development & Prog : Marc-Olivier Méhu
Technical & hardware support : Manuel Goepfert

Contact : metmap@orbifly.com




SOURCES & CREDITS :

   NOAA